sensor_id;sensor_type;location;lat;lon;timestamp;temperature;humidity
71128;SHT30;59249;59.736;30.568;2022-12-13T00:00:07;-5.47;82.60
71128;SHT30;59249;59.736;30.568;2022-12-13T00:02:41;-5.42;82.49
71128;SHT30;59249;59.736;30.568;2022-12-13T00:05:10;-5.37;82.46
71128;SHT30;59249;59.736;30.568;2022-12-13T00:07:41;-5.35;82.46
71128;SHT30;59249;59.736;30.568;2022-12-13T00:10:11;-5.39;82.52
71128;SHT30;59249;59.736;30.568;2022-12-13T00:12:40;-5.37;82.46
71128;SHT30;59249;59.736;30.568;2022-12-13T00:15:10;-5.30;82.52
71128;SHT30;59249;59.736;30.568;2022-12-13T00:17:40;-5.22;82.55
71128;SHT30;59249;59.736;30.568;2022-12-13T00:20:10;-5.25;82.51
71128;SHT30;59249;59.736;30.568;2022-12-13T00:22:39;-5.20;82.34
71128;SHT30;59249;59.736;30.568;2022-12-13T00:25:08;-5.20;82.38
71128;SHT30;59249;59.736;30.568;2022-12-13T00:27:38;-5.26;82.54
71128;SHT30;59249;59.736;30.568;2022-12-13T00:30:08;-5.16;82.49
71128;SHT30;59249;59.736;30.568;2022-12-13T00:32:37;-5.12;82.50
71128;SHT30;59249;59.736;30.568;2022-12-13T00:35:06;-5.13;82.49
71128;SHT30;59249;59.736;30.568;2022-12-13T00:37:35;-5.15;82.52
71128;SHT30;59249;59.736;30.568;2022-12-13T00:40:05;-5.13;82.43
71128;SHT30;59249;59.736;30.568;2022-12-13T00:42:34;-5.11;82.59
71128;SHT30;59249;59.736;30.568;2022-12-13T00:45:06;-5.08;82.66
71128;SHT30;59249;59.736;30.568;2022-12-13T00:47:35;-5.05;82.58
71128;SHT30;59249;59.736;30.568;2022-12-13T00:50:06;-5.00;82.58
71128;SHT30;59249;59.736;30.568;2022-12-13T00:52:35;-5.08;82.63
71128;SHT30;59249;59.736;30.568;2022-12-13T00:55:05;-5.02;82.66
71128;SHT30;59249;59.736;30.568;2022-12-13T00:57:34;-5.01;82.72
71128;SHT30;59249;59.736;30.568;2022-12-13T01:00:06;-4.92;82.63
71128;SHT30;59249;59.736;30.568;2022-12-13T01:02:35;-4.90;82.67
71128;SHT30;59249;59.736;30.568;2022-12-13T01:05:05;-4.92;82.56
71128;SHT30;59249;59.736;30.568;2022-12-13T01:07:33;-4.92;82.66
71128;SHT30;59249;59.736;30.568;2022-12-13T01:10:05;-4.91;82.81
71128;SHT30;59249;59.736;30.568;2022-12-13T01:12:34;-4.95;82.69
71128;SHT30;59249;59.736;30.568;2022-12-13T01:15:06;-4.85;82.89
71128;SHT30;59249;59.736;30.568;2022-12-13T01:17:35;-4.88;82.75
71128;SHT30;59249;59.736;30.568;2022-12-13T01:20:05;-4.89;82.94
71128;SHT30;59249;59.736;30.568;2022-12-13T01:22:34;-4.92;82.99
71128;SHT30;59249;59.736;30.568;2022-12-13T01:25:04;-4.83;83.04
71128;SHT30;59249;59.736;30.568;2022-12-13T01:27:33;-4.82;83.00
71128;SHT30;59249;59.736;30.568;2022-12-13T01:30:01;-4.84;83.13
71128;SHT30;59249;59.736;30.568;2022-12-13T01:32:32;-4.77;83.17
71128;SHT30;59249;59.736;30.568;2022-12-13T01:35:01;-4.72;83.19
71128;SHT30;59249;59.736;30.568;2022-12-13T01:37:31;-4.77;83.24
71128;SHT30;59249;59.736;30.568;2022-12-13T01:40:04;-4.67;83.28
71128;SHT30;59249;59.736;30.568;2022-12-13T01:42:43;-4.67;83.17
71128;SHT30;59249;59.736;30.568;2022-12-13T01:45:23;-4.63;83.31
71128;SHT30;59249;59.736;30.568;2022-12-13T01:47:58;-4.64;83.56
71128;SHT30;59249;59.736;30.568;2022-12-13T01:50:33;-4.69;83.47
71128;SHT30;59249;59.736;30.568;2022-12-13T01:53:05;-4.58;83.50
71128;SHT30;59249;59.736;30.568;2022-12-13T01:55:39;-4.54;83.51
71128;SHT30;59249;59.736;30.568;2022-12-13T01:58:10;-4.53;83.55
71128;SHT30;59249;59.736;30.568;2022-12-13T02:00:40;-4.49;83.58
71128;SHT30;59249;59.736;30.568;2022-12-13T02:03:11;-4.44;83.61
71128;SHT30;59249;59.736;30.568;2022-12-13T02:05:56;-4.45;83.41
71128;SHT30;59249;59.736;30.568;2022-12-13T02:08:27;-4.46;83.43
71128;SHT30;59249;59.736;30.568;2022-12-13T02:11:03;-4.44;83.47
71128;SHT30;59249;59.736;30.568;2022-12-13T02:13:34;-4.45;83.51
71128;SHT30;59249;59.736;30.568;2022-12-13T02:16:11;-4.48;83.66
71128;SHT30;59249;59.736;30.568;2022-12-13T02:19:11;-4.39;83.71
71128;SHT30;59249;59.736;30.568;2022-12-13T02:21:57;-4.35;83.64
71128;SHT30;59249;59.736;30.568;2022-12-13T02:25:06;-4.37;83.67
71128;SHT30;59249;59.736;30.568;2022-12-13T02:27:52;-4.32;83.60
71128;SHT30;59249;59.736;30.568;2022-12-13T02:30:36;-4.32;83.66
71128;SHT30;59249;59.736;30.568;2022-12-13T02:33:24;-4.34;83.75
71128;SHT30;59249;59.736;30.568;2022-12-13T02:36:06;-4.31;83.81
71128;SHT30;59249;59.736;30.568;2022-12-13T02:38:48;-4.25;83.85
71128;SHT30;59249;59.736;30.568;2022-12-13T02:41:26;-4.18;83.94
71128;SHT30;59249;59.736;30.568;2022-12-13T02:44:06;-4.25;83.92
71128;SHT30;59249;59.736;30.568;2022-12-13T02:46:55;-4.21;83.97
71128;SHT30;59249;59.736;30.568;2022-12-13T02:49:31;-4.17;83.94
71128;SHT30;59249;59.736;30.568;2022-12-13T02:52:07;-4.18;84.12
71128;SHT30;59249;59.736;30.568;2022-12-13T02:54:39;-4.13;84.08
71128;SHT30;59249;59.736;30.568;2022-12-13T02:57:29;-4.13;84.25
71128;SHT30;59249;59.736;30.568;2022-12-13T03:00:03;-4.11;84.37
71128;SHT30;59249;59.736;30.568;2022-12-13T03:02:48;-4.08;84.47
71128;SHT30;59249;59.736;30.568;2022-12-13T03:05:30;-4.03;84.38
71128;SHT30;59249;59.736;30.568;2022-12-13T03:08:23;-4.01;84.47
71128;SHT30;59249;59.736;30.568;2022-12-13T03:11:08;-4.05;84.61
71128;SHT30;59249;59.736;30.568;2022-12-13T03:13:48;-4.04;84.80
71128;SHT30;59249;59.736;30.568;2022-12-13T03:16:28;-4.00;84.78
71128;SHT30;59249;59.736;30.568;2022-12-13T03:19:06;-3.98;85.00
71128;SHT30;59249;59.736;30.568;2022-12-13T03:21:38;-3.90;85.00
71128;SHT30;59249;59.736;30.568;2022-12-13T03:24:17;-3.87;84.93
71128;SHT30;59249;59.736;30.568;2022-12-13T03:26:47;-3.87;85.11
71128;SHT30;59249;59.736;30.568;2022-12-13T03:29:17;-3.88;85.04
71128;SHT30;59249;59.736;30.568;2022-12-13T03:31:51;-3.79;85.12
71128;SHT30;59249;59.736;30.568;2022-12-13T03:34:21;-3.78;85.04
71128;SHT30;59249;59.736;30.568;2022-12-13T03:36:51;-3.78;85.08
71128;SHT30;59249;59.736;30.568;2022-12-13T03:39:20;-3.74;85.06
71128;SHT30;59249;59.736;30.568;2022-12-13T03:41:50;-3.71;85.21
71128;SHT30;59249;59.736;30.568;2022-12-13T03:44:19;-3.69;85.16
71128;SHT30;59249;59.736;30.568;2022-12-13T03:46:49;-3.68;85.12
71128;SHT30;59249;59.736;30.568;2022-12-13T03:49:17;-3.62;85.10
71128;SHT30;59249;59.736;30.568;2022-12-13T03:51:48;-3.60;85.10
71128;SHT30;59249;59.736;30.568;2022-12-13T03:54:17;-3.59;85.09
71128;SHT30;59249;59.736;30.568;2022-12-13T03:56:46;-3.54;85.11
71128;SHT30;59249;59.736;30.568;2022-12-13T03:59:15;-3.56;85.15
71128;SHT30;59249;59.736;30.568;2022-12-13T04:01:44;-3.46;85.25
71128;SHT30;59249;59.736;30.568;2022-12-13T04:04:13;-3.46;85.21
71128;SHT30;59249;59.736;30.568;2022-12-13T04:06:41;-3.44;85.09
71128;SHT30;59249;59.736;30.568;2022-12-13T04:09:12;-3.46;85.25
71128;SHT30;59249;59.736;30.568;2022-12-13T04:11:40;-3.43;85.16
71128;SHT30;59249;59.736;30.568;2022-12-13T04:14:41;-3.34;85.19
71128;SHT30;59249;59.736;30.568;2022-12-13T04:17:10;-3.39;85.07
71128;SHT30;59249;59.736;30.568;2022-12-13T04:19:39;-3.39;85.10
71128;SHT30;59249;59.736;30.568;2022-12-13T04:22:07;-3.33;85.11
71128;SHT30;59249;59.736;30.568;2022-12-13T04:24:38;-3.41;85.09
71128;SHT30;59249;59.736;30.568;2022-12-13T04:27:13;-3.32;85.09
71128;SHT30;59249;59.736;30.568;2022-12-13T04:29:43;-3.44;85.20
71128;SHT30;59249;59.736;30.568;2022-12-13T04:32:13;-3.37;85.13
71128;SHT30;59249;59.736;30.568;2022-12-13T04:34:53;-3.33;85.06
71128;SHT30;59249;59.736;30.568;2022-12-13T04:37:30;-3.34;85.18
71128;SHT30;59249;59.736;30.568;2022-12-13T04:40:03;-3.32;84.97
71128;SHT30;59249;59.736;30.568;2022-12-13T04:42:32;-3.30;84.99
71128;SHT30;59249;59.736;30.568;2022-12-13T04:45:03;-3.26;85.04
71128;SHT30;59249;59.736;30.568;2022-12-13T04:47:31;-3.28;84.99
71128;SHT30;59249;59.736;30.568;2022-12-13T04:50:00;-3.23;84.98
71128;SHT30;59249;59.736;30.568;2022-12-13T04:52:29;-3.16;84.94
71128;SHT30;59249;59.736;30.568;2022-12-13T04:54:58;-3.17;84.82
71128;SHT30;59249;59.736;30.568;2022-12-13T04:57:29;-3.16;84.86
71128;SHT30;59249;59.736;30.568;2022-12-13T04:59:57;-3.17;84.87
71128;SHT30;59249;59.736;30.568;2022-12-13T05:02:26;-3.11;84.83
71128;SHT30;59249;59.736;30.568;2022-12-13T05:04:55;-3.12;84.77
71128;SHT30;59249;59.736;30.568;2022-12-13T05:07:25;-3.04;84.76
71128;SHT30;59249;59.736;30.568;2022-12-13T05:09:56;-3.10;84.78
71128;SHT30;59249;59.736;30.568;2022-12-13T05:12:27;-3.04;84.63
71128;SHT30;59249;59.736;30.568;2022-12-13T05:14:56;-3.10;84.61
71128;SHT30;59249;59.736;30.568;2022-12-13T05:17:27;-3.08;84.48
71128;SHT30;59249;59.736;30.568;2022-12-13T05:19:58;-3.06;84.50
71128;SHT30;59249;59.736;30.568;2022-12-13T05:22:29;-3.11;84.39
71128;SHT30;59249;59.736;30.568;2022-12-13T05:24:58;-3.23;84.28
71128;SHT30;59249;59.736;30.568;2022-12-13T05:27:30;-3.27;84.22
71128;SHT30;59249;59.736;30.568;2022-12-13T05:29:58;-3.41;84.55
71128;SHT30;59249;59.736;30.568;2022-12-13T05:32:32;-3.51;84.76
71128;SHT30;59249;59.736;30.568;2022-12-13T05:35:12;-3.41;85.13
71128;SHT30;59249;59.736;30.568;2022-12-13T05:37:50;-3.43;85.15
71128;SHT30;59249;59.736;30.568;2022-12-13T05:40:21;-3.47;85.08
71128;SHT30;59249;59.736;30.568;2022-12-13T05:42:53;-3.40;85.07
71128;SHT30;59249;59.736;30.568;2022-12-13T05:45:29;-3.37;85.11
71128;SHT30;59249;59.736;30.568;2022-12-13T05:48:02;-3.30;85.10
71128;SHT30;59249;59.736;30.568;2022-12-13T05:50:32;-3.19;85.02
71128;SHT30;59249;59.736;30.568;2022-12-13T05:53:02;-3.14;84.93
71128;SHT30;59249;59.736;30.568;2022-12-13T05:55:58;-3.09;84.82
71128;SHT30;59249;59.736;30.568;2022-12-13T05:58:45;-3.04;84.47
71128;SHT30;59249;59.736;30.568;2022-12-13T06:01:25;-3.01;84.44
71128;SHT30;59249;59.736;30.568;2022-12-13T06:03:58;-2.95;84.37
71128;SHT30;59249;59.736;30.568;2022-12-13T06:06:29;-2.94;84.16
71128;SHT30;59249;59.736;30.568;2022-12-13T06:08:58;-2.97;84.19
71128;SHT30;59249;59.736;30.568;2022-12-13T06:11:27;-2.94;84.08
71128;SHT30;59249;59.736;30.568;2022-12-13T06:14:00;-2.92;83.97
71128;SHT30;59249;59.736;30.568;2022-12-13T06:16:28;-2.90;83.85
71128;SHT30;59249;59.736;30.568;2022-12-13T06:18:57;-2.88;83.59
71128;SHT30;59249;59.736;30.568;2022-12-13T06:21:31;-2.85;83.30
71128;SHT30;59249;59.736;30.568;2022-12-13T06:24:14;-2.76;83.08
71128;SHT30;59249;59.736;30.568;2022-12-13T06:26:43;-2.85;82.92
71128;SHT30;59249;59.736;30.568;2022-12-13T06:29:16;-2.82;82.90
71128;SHT30;59249;59.736;30.568;2022-12-13T06:31:56;-2.76;82.78
71128;SHT30;59249;59.736;30.568;2022-12-13T06:34:31;-2.90;82.33
71128;SHT30;59249;59.736;30.568;2022-12-13T06:37:04;-2.83;82.15
71128;SHT30;59249;59.736;30.568;2022-12-13T06:39:34;-2.96;81.94
71128;SHT30;59249;59.736;30.568;2022-12-13T06:42:05;-3.09;81.89
71128;SHT30;59249;59.736;30.568;2022-12-13T06:44:36;-3.11;81.90
71128;SHT30;59249;59.736;30.568;2022-12-13T06:47:05;-3.13;82.03
71128;SHT30;59249;59.736;30.568;2022-12-13T06:49:40;-3.12;81.84
71128;SHT30;59249;59.736;30.568;2022-12-13T06:52:13;-3.16;81.79
71128;SHT30;59249;59.736;30.568;2022-12-13T06:54:42;-3.09;81.63
71128;SHT30;59249;59.736;30.568;2022-12-13T06:57:12;-3.03;81.60
71128;SHT30;59249;59.736;30.568;2022-12-13T06:59:42;-3.09;81.64
71128;SHT30;59249;59.736;30.568;2022-12-13T07:02:12;-3.08;81.66
71128;SHT30;59249;59.736;30.568;2022-12-13T07:04:53;-3.04;81.65
71128;SHT30;59249;59.736;30.568;2022-12-13T07:07:23;-2.99;81.94
71128;SHT30;59249;59.736;30.568;2022-12-13T07:09:52;-2.93;81.87
71128;SHT30;59249;59.736;30.568;2022-12-13T07:12:25;-2.92;81.83
71128;SHT30;59249;59.736;30.568;2022-12-13T07:14:55;-2.83;81.93
71128;SHT30;59249;59.736;30.568;2022-12-13T07:17:24;-2.83;81.78
71128;SHT30;59249;59.736;30.568;2022-12-13T07:20:04;-2.87;81.76
71128;SHT30;59249;59.736;30.568;2022-12-13T07:22:36;-2.98;81.91
71128;SHT30;59249;59.736;30.568;2022-12-13T07:25:14;-3.01;81.88
71128;SHT30;59249;59.736;30.568;2022-12-13T07:27:57;-3.03;82.07
71128;SHT30;59249;59.736;30.568;2022-12-13T07:30:31;-3.00;82.17
71128;SHT30;59249;59.736;30.568;2022-12-13T07:33:08;-2.99;82.27
71128;SHT30;59249;59.736;30.568;2022-12-13T07:35:37;-2.88;82.28
71128;SHT30;59249;59.736;30.568;2022-12-13T07:38:08;-2.83;82.12
71128;SHT30;59249;59.736;30.568;2022-12-13T07:40:40;-2.78;81.99
71128;SHT30;59249;59.736;30.568;2022-12-13T07:43:09;-2.71;82.01
71128;SHT30;59249;59.736;30.568;2022-12-13T07:45:39;-2.79;81.90
71128;SHT30;59249;59.736;30.568;2022-12-13T07:48:08;-2.69;82.01
71128;SHT30;59249;59.736;30.568;2022-12-13T07:50:37;-2.58;81.89
71128;SHT30;59249;59.736;30.568;2022-12-13T07:53:07;-2.48;82.00
71128;SHT30;59249;59.736;30.568;2022-12-13T07:55:37;-2.50;81.81
71128;SHT30;59249;59.736;30.568;2022-12-13T07:58:08;-2.42;81.80
71128;SHT30;59249;59.736;30.568;2022-12-13T08:00:40;-2.34;81.65
71128;SHT30;59249;59.736;30.568;2022-12-13T08:03:13;-2.32;81.69
71128;SHT30;59249;59.736;30.568;2022-12-13T08:05:59;-2.32;81.65
71128;SHT30;59249;59.736;30.568;2022-12-13T08:08:29;-2.22;81.56
71128;SHT30;59249;59.736;30.568;2022-12-13T08:11:01;-2.20;81.43
71128;SHT30;59249;59.736;30.568;2022-12-13T08:13:30;-2.08;81.53
71128;SHT30;59249;59.736;30.568;2022-12-13T08:16:03;-2.01;81.35
71128;SHT30;59249;59.736;30.568;2022-12-13T08:18:52;-1.94;81.35
71128;SHT30;59249;59.736;30.568;2022-12-13T08:21:35;-1.96;81.09
71128;SHT30;59249;59.736;30.568;2022-12-13T08:24:22;-2.04;81.14
71128;SHT30;59249;59.736;30.568;2022-12-13T08:26:53;-1.98;81.27
71128;SHT30;59249;59.736;30.568;2022-12-13T08:29:23;-1.94;81.38
71128;SHT30;59249;59.736;30.568;2022-12-13T08:32:05;-1.85;81.19
71128;SHT30;59249;59.736;30.568;2022-12-13T08:34:35;-1.90;81.02
71128;SHT30;59249;59.736;30.568;2022-12-13T08:37:04;-1.83;80.96
71128;SHT30;59249;59.736;30.568;2022-12-13T08:39:35;-1.87;80.92
71128;SHT30;59249;59.736;30.568;2022-12-13T08:42:07;-1.90;80.84
71128;SHT30;59249;59.736;30.568;2022-12-13T08:44:47;-1.85;80.78
71128;SHT30;59249;59.736;30.568;2022-12-13T08:47:22;-1.96;80.83
71128;SHT30;59249;59.736;30.568;2022-12-13T08:49:54;-1.83;80.75
71128;SHT30;59249;59.736;30.568;2022-12-13T08:52:33;-1.85;80.84
71128;SHT30;59249;59.736;30.568;2022-12-13T08:55:08;-1.78;80.72
71128;SHT30;59249;59.736;30.568;2022-12-13T08:57:40;-1.74;80.56
71128;SHT30;59249;59.736;30.568;2022-12-13T09:00:13;-1.71;80.60
71128;SHT30;59249;59.736;30.568;2022-12-13T09:02:44;-1.83;80.67
71128;SHT30;59249;59.736;30.568;2022-12-13T09:05:13;-1.84;80.56
71128;SHT30;59249;59.736;30.568;2022-12-13T09:08:02;-1.83;80.66
71128;SHT30;59249;59.736;30.568;2022-12-13T09:10:58;-1.64;80.89
71128;SHT30;59249;59.736;30.568;2022-12-13T09:13:47;-1.64;80.85
71128;SHT30;59249;59.736;30.568;2022-12-13T09:16:19;-1.73;80.68
71128;SHT30;59249;59.736;30.568;2022-12-13T09:18:52;-1.69;80.98
71128;SHT30;59249;59.736;30.568;2022-12-13T09:21:22;-1.73;81.29
71128;SHT30;59249;59.736;30.568;2022-12-13T09:23:59;-1.59;81.15
71128;SHT30;59249;59.736;30.568;2022-12-13T09:26:29;-1.59;81.20
71128;SHT30;59249;59.736;30.568;2022-12-13T09:29:04;-1.40;80.99
71128;SHT30;59249;59.736;30.568;2022-12-13T09:31:38;-1.36;80.99
71128;SHT30;59249;59.736;30.568;2022-12-13T09:34:09;-1.34;80.85
71128;SHT30;59249;59.736;30.568;2022-12-13T09:36:38;-1.43;80.71
71128;SHT30;59249;59.736;30.568;2022-12-13T09:39:08;-1.39;80.78
71128;SHT30;59249;59.736;30.568;2022-12-13T09:41:42;-1.34;80.68
71128;SHT30;59249;59.736;30.568;2022-12-13T09:44:21;-1.24;80.54
71128;SHT30;59249;59.736;30.568;2022-12-13T09:47:03;-1.36;80.47
71128;SHT30;59249;59.736;30.568;2022-12-13T09:49:44;-1.32;80.64
71128;SHT30;59249;59.736;30.568;2022-12-13T09:52:23;-1.30;80.68
71128;SHT30;59249;59.736;30.568;2022-12-13T09:55:00;-1.23;80.85
71128;SHT30;59249;59.736;30.568;2022-12-13T09:57:36;-1.13;81.12
71128;SHT30;59249;59.736;30.568;2022-12-13T10:00:10;-1.14;80.85
71128;SHT30;59249;59.736;30.568;2022-12-13T10:02:44;-1.18;81.01
71128;SHT30;59249;59.736;30.568;2022-12-13T10:05:21;-1.16;81.14
71128;SHT30;59249;59.736;30.568;2022-12-13T10:08:11;-1.19;81.22
71128;SHT30;59249;59.736;30.568;2022-12-13T10:10:41;-1.24;81.26
71128;SHT30;59249;59.736;30.568;2022-12-13T10:13:18;-1.27;81.14
71128;SHT30;59249;59.736;30.568;2022-12-13T10:15:53;-1.25;81.06
71128;SHT30;59249;59.736;30.568;2022-12-13T10:18:34;-1.23;81.08
71128;SHT30;59249;59.736;30.568;2022-12-13T10:21:12;-1.23;80.80
71128;SHT30;59249;59.736;30.568;2022-12-13T10:23:41;-1.20;80.74
71128;SHT30;59249;59.736;30.568;2022-12-13T10:26:35;-1.20;80.66
71128;SHT30;59249;59.736;30.568;2022-12-13T10:29:06;-1.17;80.64
71128;SHT30;59249;59.736;30.568;2022-12-13T10:31:41;-1.22;80.65
71128;SHT30;59249;59.736;30.568;2022-12-13T10:34:21;-1.17;80.65
71128;SHT30;59249;59.736;30.568;2022-12-13T10:36:52;-1.22;80.62
71128;SHT30;59249;59.736;30.568;2022-12-13T10:39:39;-1.18;80.40
71128;SHT30;59249;59.736;30.568;2022-12-13T10:42:13;-1.24;80.45
71128;SHT30;59249;59.736;30.568;2022-12-13T10:45:13;-1.22;80.64
71128;SHT30;59249;59.736;30.568;2022-12-13T10:47:50;-1.26;80.55
71128;SHT30;59249;59.736;30.568;2022-12-13T10:50:24;-1.18;80.47
71128;SHT30;59249;59.736;30.568;2022-12-13T10:52:58;-1.17;80.44
71128;SHT30;59249;59.736;30.568;2022-12-13T10:55:31;-1.17;80.40
71128;SHT30;59249;59.736;30.568;2022-12-13T10:58:04;-1.05;80.08
71128;SHT30;59249;59.736;30.568;2022-12-13T11:00:40;-0.96;79.95
71128;SHT30;59249;59.736;30.568;2022-12-13T11:03:31;-1.07;79.40
71128;SHT30;59249;59.736;30.568;2022-12-13T11:06:05;-1.08;79.36
71128;SHT30;59249;59.736;30.568;2022-12-13T11:08:36;-1.09;79.55
71128;SHT30;59249;59.736;30.568;2022-12-13T11:11:07;-1.13;79.48
71128;SHT30;59249;59.736;30.568;2022-12-13T11:13:40;-1.19;79.60
71128;SHT30;59249;59.736;30.568;2022-12-13T11:16:22;-1.38;79.60
71128;SHT30;59249;59.736;30.568;2022-12-13T11:18:57;-1.33;79.75
71128;SHT30;59249;59.736;30.568;2022-12-13T11:21:29;-1.34;79.83
71128;SHT30;59249;59.736;30.568;2022-12-13T11:24:04;-1.33;79.95
71128;SHT30;59249;59.736;30.568;2022-12-13T11:26:52;-1.30;80.02
71128;SHT30;59249;59.736;30.568;2022-12-13T11:30:07;-1.30;80.04
71128;SHT30;59249;59.736;30.568;2022-12-13T11:33:14;-1.24;79.83
71128;SHT30;59249;59.736;30.568;2022-12-13T11:36:01;-1.18;79.89
71128;SHT30;59249;59.736;30.568;2022-12-13T11:38:46;-1.11;79.64
71128;SHT30;59249;59.736;30.568;2022-12-13T11:41:30;-1.11;79.66
71128;SHT30;59249;59.736;30.568;2022-12-13T11:44:09;-1.11;79.59
71128;SHT30;59249;59.736;30.568;2022-12-13T11:46:43;-0.99;79.64
71128;SHT30;59249;59.736;30.568;2022-12-13T11:49:15;-1.11;79.28
71128;SHT30;59249;59.736;30.568;2022-12-13T11:51:51;-0.91;79.27
71128;SHT30;59249;59.736;30.568;2022-12-13T11:54:33;-0.98;79.32
71128;SHT30;59249;59.736;30.568;2022-12-13T11:57:14;-1.02;79.55
71128;SHT30;59249;59.736;30.568;2022-12-13T11:59:49;-0.93;79.77
71128;SHT30;59249;59.736;30.568;2022-12-13T12:02:34;-1.02;79.89
71128;SHT30;59249;59.736;30.568;2022-12-13T12:05:20;-1.09;79.86
71128;SHT30;59249;59.736;30.568;2022-12-13T12:07:58;-1.03;80.01
71128;SHT30;59249;59.736;30.568;2022-12-13T12:11:00;-1.09;80.11
71128;SHT30;59249;59.736;30.568;2022-12-13T12:13:39;-1.09;80.29
71128;SHT30;59249;59.736;30.568;2022-12-13T12:16:30;-1.11;80.26
71128;SHT30;59249;59.736;30.568;2022-12-13T12:19:02;-1.01;80.24
71128;SHT30;59249;59.736;30.568;2022-12-13T12:21:36;-1.08;80.28
71128;SHT30;59249;59.736;30.568;2022-12-13T12:24:38;-0.94;80.31
71128;SHT30;59249;59.736;30.568;2022-12-13T12:27:27;-1.08;80.24
71128;SHT30;59249;59.736;30.568;2022-12-13T12:30:19;-1.08;80.24
71128;SHT30;59249;59.736;30.568;2022-12-13T12:33:01;-1.17;80.37
71128;SHT30;59249;59.736;30.568;2022-12-13T12:36:16;-1.20;80.55
71128;SHT30;59249;59.736;30.568;2022-12-13T12:42:14;-1.14;80.87
71128;SHT30;59249;59.736;30.568;2022-12-13T12:45:09;-1.17;80.67
71128;SHT30;59249;59.736;30.568;2022-12-13T12:48:05;-1.21;80.70
71128;SHT30;59249;59.736;30.568;2022-12-13T12:51:05;-1.15;80.76
71128;SHT30;59249;59.736;30.568;2022-12-13T12:53:45;-1.15;80.79
71128;SHT30;59249;59.736;30.568;2022-12-13T12:56:33;-1.20;80.97
71128;SHT30;59249;59.736;30.568;2022-12-13T12:59:16;-1.20;81.01
71128;SHT30;59249;59.736;30.568;2022-12-13T13:01:58;-1.17;81.20
71128;SHT30;59249;59.736;30.568;2022-12-13T13:04:36;-1.21;81.41
71128;SHT30;59249;59.736;30.568;2022-12-13T13:07:15;-1.24;81.61
71128;SHT30;59249;59.736;30.568;2022-12-13T13:09:52;-1.24;81.74
71128;SHT30;59249;59.736;30.568;2022-12-13T13:13:32;-1.31;81.99
71128;SHT30;59249;59.736;30.568;2022-12-13T13:17:47;-1.28;82.37
71128;SHT30;59249;59.736;30.568;2022-12-13T13:20:21;-1.32;82.75
71128;SHT30;59249;59.736;30.568;2022-12-13T13:22:54;-1.24;82.84
71128;SHT30;59249;59.736;30.568;2022-12-13T13:25:52;-1.35;83.00
71128;SHT30;59249;59.736;30.568;2022-12-13T13:28:42;-1.35;83.16
71128;SHT30;59249;59.736;30.568;2022-12-13T13:31:11;-1.28;83.43
71128;SHT30;59249;59.736;30.568;2022-12-13T13:33:46;-1.40;83.70
71128;SHT30;59249;59.736;30.568;2022-12-13T13:36:44;-1.34;83.43
71128;SHT30;59249;59.736;30.568;2022-12-13T13:39:18;-1.34;83.25
71128;SHT30;59249;59.736;30.568;2022-12-13T13:42:16;-1.31;83.12
71128;SHT30;59249;59.736;30.568;2022-12-13T13:45:18;-1.22;82.97
71128;SHT30;59249;59.736;30.568;2022-12-13T13:48:10;-1.17;82.98
71128;SHT30;59249;59.736;30.568;2022-12-13T13:51:37;-1.13;83.27
71128;SHT30;59249;59.736;30.568;2022-12-13T13:55:27;-1.13;83.47
71128;SHT30;59249;59.736;30.568;2022-12-13T13:58:41;-1.16;83.71
71128;SHT30;59249;59.736;30.568;2022-12-13T14:05:14;-1.21;83.45
71128;SHT30;59249;59.736;30.568;2022-12-13T14:08:25;-1.17;83.38
71128;SHT30;59249;59.736;30.568;2022-12-13T14:11:59;-1.22;83.39
71128;SHT30;59249;59.736;30.568;2022-12-13T14:18:59;-1.15;82.91
71128;SHT30;59249;59.736;30.568;2022-12-13T14:21:52;-1.21;83.07
71128;SHT30;59249;59.736;30.568;2022-12-13T14:24:48;-1.05;83.29
71128;SHT30;59249;59.736;30.568;2022-12-13T14:27:38;-1.09;83.59
71128;SHT30;59249;59.736;30.568;2022-12-13T14:30:13;-1.08;83.94
71128;SHT30;59249;59.736;30.568;2022-12-13T14:32:56;-1.15;84.26
71128;SHT30;59249;59.736;30.568;2022-12-13T14:35:27;-1.10;84.48
71128;SHT30;59249;59.736;30.568;2022-12-13T14:38:00;-1.08;84.76
71128;SHT30;59249;59.736;30.568;2022-12-13T14:40:33;-1.01;84.78
71128;SHT30;59249;59.736;30.568;2022-12-13T14:43:02;-1.13;84.87
71128;SHT30;59249;59.736;30.568;2022-12-13T14:45:34;-0.99;85.08
71128;SHT30;59249;59.736;30.568;2022-12-13T14:48:11;-1.07;85.19
71128;SHT30;59249;59.736;30.568;2022-12-13T14:50:45;-1.11;85.20
71128;SHT30;59249;59.736;30.568;2022-12-13T14:53:24;-1.15;85.38
71128;SHT30;59249;59.736;30.568;2022-12-13T14:56:08;-1.15;85.54
71128;SHT30;59249;59.736;30.568;2022-12-13T14:58:57;-1.15;85.56
71128;SHT30;59249;59.736;30.568;2022-12-13T15:01:33;-1.17;85.70
71128;SHT30;59249;59.736;30.568;2022-12-13T15:04:24;-1.13;85.59
71128;SHT30;59249;59.736;30.568;2022-12-13T15:07:12;-1.04;85.46
71128;SHT30;59249;59.736;30.568;2022-12-13T15:09:45;-1.09;85.40
71128;SHT30;59249;59.736;30.568;2022-12-13T15:12:18;-1.11;85.28
71128;SHT30;59249;59.736;30.568;2022-12-13T15:14:58;-1.15;85.10
71128;SHT30;59249;59.736;30.568;2022-12-13T15:17:33;-1.15;84.74
71128;SHT30;59249;59.736;30.568;2022-12-13T15:20:24;-1.11;84.47
71128;SHT30;59249;59.736;30.568;2022-12-13T15:22:59;-1.14;84.19
71128;SHT30;59249;59.736;30.568;2022-12-13T15:25:33;-1.23;84.15
71128;SHT30;59249;59.736;30.568;2022-12-13T15:28:05;-1.40;84.14
71128;SHT30;59249;59.736;30.568;2022-12-13T15:30:39;-1.34;84.19
71128;SHT30;59249;59.736;30.568;2022-12-13T15:33:20;-1.44;83.97
71128;SHT30;59249;59.736;30.568;2022-12-13T15:36:06;-1.55;83.90
71128;SHT30;59249;59.736;30.568;2022-12-13T15:38:39;-1.39;83.83
71128;SHT30;59249;59.736;30.568;2022-12-13T15:41:17;-1.56;83.89
71128;SHT30;59249;59.736;30.568;2022-12-13T15:43:52;-1.62;83.64
71128;SHT30;59249;59.736;30.568;2022-12-13T15:46:26;-1.59;83.61
71128;SHT30;59249;59.736;30.568;2022-12-13T15:48:59;-1.70;83.38
71128;SHT30;59249;59.736;30.568;2022-12-13T15:51:29;-1.67;83.28
71128;SHT30;59249;59.736;30.568;2022-12-13T15:54:05;-1.68;83.02
71128;SHT30;59249;59.736;30.568;2022-12-13T15:56:37;-1.54;82.93
71128;SHT30;59249;59.736;30.568;2022-12-13T15:59:26;-1.55;82.62
71128;SHT30;59249;59.736;30.568;2022-12-13T16:02:08;-1.63;82.06
71128;SHT30;59249;59.736;30.568;2022-12-13T16:04:51;-1.75;81.75
71128;SHT30;59249;59.736;30.568;2022-12-13T16:07:24;-1.75;81.43
71128;SHT30;59249;59.736;30.568;2022-12-13T16:09:57;-1.71;81.39
71128;SHT30;59249;59.736;30.568;2022-12-13T16:12:35;-1.73;81.49
71128;SHT30;59249;59.736;30.568;2022-12-13T16:15:15;-1.73;81.56
71128;SHT30;59249;59.736;30.568;2022-12-13T16:18:11;-1.82;81.87
71128;SHT30;59249;59.736;30.568;2022-12-13T16:20:39;-1.87;81.87
71128;SHT30;59249;59.736;30.568;2022-12-13T16:23:10;-1.91;82.04
71128;SHT30;59249;59.736;30.568;2022-12-13T16:25:53;-1.83;81.89
71128;SHT30;59249;59.736;30.568;2022-12-13T16:28:22;-1.93;81.94